Port Imperial New Jersey — WBR3133 — position and weather

sailwx.info

Track history (hours):
 
Tides and Currents Weather Stations Pressure Air Temp Water Temp Dewpoint Dewpoint Depression Visibility Wind Speed Wind Dir Waves Ship Positions

Port Imperial New Jersey

Owner: PORT IMPERIAL FERRY CORP, WEEHAWKEN, NJ. More information available from US FCC via Universal Licensing System and Coast Guard Vessel Documentation Center.

Last reported at 2016-Jul-24 05:33 UTC. Time now 2016-Jul-24 08:51 UTC.
Position N 40°46' W 074°01'.

Length 31 m.

Type: Passenger vessel. MMSI: 366990550.

Date/timePositionNaut miles runAvg speedWind from/ knotsBaromVisibWave heightAir tempDewpointWater temp
2016-Jul-24 05:33N 40°46' W 074°01'2 1.2
2016-Jul-24 03:34N 40°45' W 073°57'3 1.4
2016-Jul-24 01:33N 40°43' W 073°58'2 2.3
2016-Jul-24 00:33N 40°43' W 074°01'3 3.1
2016-Jul-23 23:33N 40°46' W 074°01'3 0.2
2016-Jul-23 04:34N 40°43' W 074°01'4 3.5
2016-Jul-23 03:25N 40°46' W 073°57'0 0.2
2016-Jul-23 02:08N 40°46' W 073°57'0 0.2
2016-Jul-23 01:17N 40°46' W 073°57'0 0.1
2016-Jul-23 00:32N 40°46' W 073°57'1 1.5
2016-Jul-22 23:33N 40°45' W 073°58'1 0.8
2016-Jul-22 22:33N 40°45' W 073°57'2 2.0
2016-Jul-22 21:33N 40°47' W 073°56'1 0.9
2016-Jul-22 20:30N 40°48' W 073°56'2 2.1
2016-Jul-22 19:24N 40°46' W 073°57'0 0.1
2016-Jul-22 18:33N 40°46' W 073°57'1 1.4
2016-Jul-22 17:33N 40°45' W 073°58'2 2.0
2016-Jul-22 16:33N 40°45' W 074°01'0 0.5
2016-Jul-22 15:33N 40°46' W 074°00'1 0.7
2016-Jul-22 14:33N 40°46' W 074°01'1 0.6
2016-Jul-22 13:33N 40°46' W 074°01'1 0.6
2016-Jul-22 12:33N 40°46' W 074°01'0 0.4
2016-Jul-22 11:33N 40°46' W 074°01'1 0.8
2016-Jul-22 10:33N 40°46' W 074°01'0 0.0
2016-Jul-22 00:05N 40°46' W 074°01'1 2.3
2016-Jul-21 23:33N 40°45' W 074°01'0 0.1
2016-Jul-21 22:33N 40°45' W 074°01'0 0.1
2016-Jul-21 21:34N 40°45' W 074°01'0 0.5
2016-Jul-21 20:33N 40°45' W 074°01'0 0.2
2016-Jul-21 19:33N 40°45' W 074°01'1 0.6
2016-Jul-21 18:33N 40°46' W 074°00'0 0.0
2016-Jul-21 17:34N 40°46' W 074°00'0 0.0
2016-Jul-21 16:34N 40°46' W 074°00'0 0.0
2016-Jul-21 15:33N 40°46' W 074°00'1 0.7
2016-Jul-21 14:33N 40°46' W 074°01'1 0.7
2016-Jul-21 13:34N 40°46' W 074°01'0 0.0
2016-Jul-21 12:33N 40°46' W 074°01'0 0.1
2016-Jul-21 11:33N 40°45' W 074°01'1 0.8
2016-Jul-21 10:33N 40°46' W 074°01'0 0.0
2016-Jul-21 00:05N 40°46' W 074°01'1 1.3
2016-Jul-20 23:33N 40°46' W 074°01'1 0.6
2016-Jul-20 22:34N 40°45' W 074°01'0 0.1
2016-Jul-20 21:33N 40°45' W 074°01'1 0.6
2016-Jul-20 20:33N 40°45' W 074°01'0 0.2
2016-Jul-20 19:33N 40°45' W 074°01'1 0.6
2016-Jul-20 18:33N 40°46' W 074°00'0 0.1
2016-Jul-20 17:33N 40°46' W 074°00'0 0.0
2016-Jul-20 16:33N 40°46' W 074°00'0 0.0
2016-Jul-20 15:34N 40°46' W 074°00'1 0.7
2016-Jul-20 14:33N 40°46' W 074°01'1 0.6
2016-Jul-20 13:34N 40°46' W 074°00'0 0.1
2016-Jul-20 12:33N 40°46' W 074°00'0 0.3
2016-Jul-20 11:33N 40°45' W 074°01'0 0.4
2016-Jul-20 10:33N 40°46' W 074°00'1 1.0
2016-Jul-20 09:34N 40°47' W 074°01'0 0.0
2016-Jul-20 00:05N 40°47' W 074°01'1 2.0
2016-Jul-19 23:33N 40°46' W 074°01'0 0.3
2016-Jul-19 22:34N 40°45' W 074°01'0 0.3
2016-Jul-19 21:34N 40°45' W 074°01'1 0.6
2016-Jul-19 20:34N 40°45' W 074°01'0 0.3
2016-Jul-19 19:34N 40°46' W 074°00'1 0.7
2016-Jul-19 18:33N 40°46' W 074°01'1 0.8
2016-Jul-19 17:33N 40°46' W 074°00'0 0.0
2016-Jul-19 16:33N 40°46' W 074°00'0 0.0
2016-Jul-19 15:33N 40°46' W 074°00'3 2.8
2016-Jul-19 14:33N 40°43' W 074°01'0 0.4
2016-Jul-19 13:33N 40°43' W 074°02'0 0.2
2016-Jul-19 12:33N 40°43' W 074°01'0 0.1
2016-Jul-19 11:34N 40°43' W 074°02'0 0.2
2016-Jul-19 10:33N 40°43' W 074°01'2 0.2
2016-Jul-18 23:33N 40°45' W 074°01'3 2.7
2016-Jul-18 22:33N 40°42' W 074°01'0 0.4
2016-Jul-18 21:33N 40°42' W 074°01'2 2.2
2016-Jul-18 20:33N 40°44' W 074°02'0 0.0
2016-Jul-18 19:34N 40°44' W 074°02'0 0.0
2016-Jul-18 18:34N 40°44' W 074°02'2 2.0
2016-Jul-18 17:34N 40°46' W 074°01'1 0.5
2016-Jul-18 16:33N 40°45' W 074°01'0 0.1
2016-Jul-18 15:34N 40°45' W 074°01'0 0.5
2016-Jul-18 14:33N 40°46' W 074°00'0 0.0
2016-Jul-18 13:34N 40°46' W 074°00'0 0.4
2016-Jul-18 12:33N 40°45' W 074°01'0 0.2
2016-Jul-18 11:33N 40°46' W 074°01'1 0.7
2016-Jul-18 10:33N 40°46' W 074°01'1 0.1
2016-Jul-17 19:33N 40°45' W 074°01'0 0.3
2016-Jul-17 18:30N 40°45' W 074°01'1 0.5
2016-Jul-17 17:28N 40°46' W 074°00'0 0.1
2016-Jul-17 16:22N 40°46' W 074°01'0 0.1
2016-Jul-17 15:33N 40°46' W 074°01'0 0.2
2016-Jul-17 14:32N 40°46' W 074°00'1 0.1
2016-Jul-17 06:09N 40°46' W 074°01'5 2.9
2016-Jul-17 04:34N 40°42' W 074°01'0 0.0
2016-Jul-17 03:34N 40°42' W 074°01'0 0.5
2016-Jul-17 02:33N 40°42' W 074°01'0 0.5
2016-Jul-17 01:33N 40°42' W 074°01'0 0.0
2016-Jul-17 00:34N 40°42' W 074°01'0 0.0
2016-Jul-16 23:33N 40°42' W 074°01'0 0.4
2016-Jul-16 22:23N 40°42' W 074°01'0 0.0
2016-Jul-16 21:34N 40°42' W 074°01'0 0.4
2016-Jul-16 20:33N 40°42' W 074°01'1 0.7
2016-Jul-16 19:34N 40°42' W 074°01'4 4.2
2016-Jul-16 18:33N 40°46' W 074°01'1 0.8
2016-Jul-16 17:33N 40°46' W 074°00'0 0.0
2016-Jul-16 16:33N 40°46' W 074°00'0 0.1
2016-Jul-16 15:34N 40°46' W 074°00'1 0.7
2016-Jul-16 14:33N 40°46' W 074°01'0 0.0
2016-Jul-16 00:07N 40°46' W 074°01'1 1.3
2016-Jul-15 23:33N 40°46' W 074°01'0 0.3
2016-Jul-15 22:34N 40°45' W 074°01'0 0.3
2016-Jul-15 21:33N 40°45' W 074°01'0 0.3
2016-Jul-15 20:33N 40°45' W 074°01'0 0.3
2016-Jul-15 19:34N 40°46' W 074°00'1 0.6
2016-Jul-15 18:33N 40°45' W 074°01'1 0.6
2016-Jul-15 17:33N 40°46' W 074°00'0 0.0
2016-Jul-15 16:33N 40°46' W 074°00'0 0.0
2016-Jul-15 15:33N 40°46' W 074°00'1 0.8
2016-Jul-15 14:33N 40°46' W 074°01'1 0.9
2016-Jul-15 13:34N 40°45' W 074°01'0 0.1
2016-Jul-15 12:34N 40°45' W 074°01'0 0.3
2016-Jul-15 11:33N 40°46' W 074°01'1 1.1
2016-Jul-15 10:33N 40°47' W 074°01'0 0.0
2016-Jul-14 23:14N 40°47' W 074°01'0 0.1
2016-Jul-14 19:33N 40°46' W 074°01'1 0.8
2016-Jul-14 18:34N 40°46' W 074°00'0 0.0
2016-Jul-14 17:33N 40°46' W 074°00'0 0.0
2016-Jul-14 16:34N 40°46' W 074°00'0 0.0
2016-Jul-14 15:33N 40°46' W 074°00'1 0.8
2016-Jul-14 14:33N 40°46' W 074°01'1 0.8
2016-Jul-14 13:33N 40°45' W 074°01'0 0.4
2016-Jul-14 12:33N 40°46' W 074°00'0 0.4
2016-Jul-14 11:34N 40°45' W 074°01'1 1.1
2016-Jul-14 10:33N 40°47' W 074°01'0 0.0
2016-Jul-14 09:33N 40°47' W 074°01'0 0.0
2016-Jul-14 08:33N 40°47' W 074°01'  
Track history (hours):
 
Tides and Currents Weather Stations Pressure Air Temp Water Temp Dewpoint Dewpoint Depression Visibility Wind Speed Wind Dir Waves Ship Positions

Port Imperial New Jersey

Owner: PORT IMPERIAL FERRY CORP, WEEHAWKEN, NJ. More information available from US FCC via Universal Licensing System and Coast Guard Vessel Documentation Center.

Last reported at 2016-Jul-24 05:33 UTC. Time now 2016-Jul-24 08:51 UTC.
Position N 40°46' W 074°01'.

Length 31 m.

Type: Passenger vessel. MMSI: 366990550.

Date/timePositionNaut miles runAvg speedWind from/ knotsBaromVisibWave heightAir tempDewpointWater temp
2016-Jul-24 05:33N 40°46' W 074°01'2 1.2
2016-Jul-24 03:34N 40°45' W 073°57'3 1.4
2016-Jul-24 01:33N 40°43' W 073°58'2 2.3
2016-Jul-24 00:33N 40°43' W 074°01'3 3.1
2016-Jul-23 23:33N 40°46' W 074°01'3 0.2
2016-Jul-23 04:34N 40°43' W 074°01'4 3.5
2016-Jul-23 03:25N 40°46' W 073°57'0 0.2
2016-Jul-23 02:08N 40°46' W 073°57'0 0.2
2016-Jul-23 01:17N 40°46' W 073°57'0 0.1
2016-Jul-23 00:32N 40°46' W 073°57'1 1.5
2016-Jul-22 23:33N 40°45' W 073°58'1 0.8
2016-Jul-22 22:33N 40°45' W 073°57'2 2.0
2016-Jul-22 21:33N 40°47' W 073°56'1 0.9
2016-Jul-22 20:30N 40°48' W 073°56'2 2.1
2016-Jul-22 19:24N 40°46' W 073°57'0 0.1
2016-Jul-22 18:33N 40°46' W 073°57'1 1.4
2016-Jul-22 17:33N 40°45' W 073°58'2 2.0
2016-Jul-22 16:33N 40°45' W 074°01'0 0.5
2016-Jul-22 15:33N 40°46' W 074°00'1 0.7
2016-Jul-22 14:33N 40°46' W 074°01'1 0.6
2016-Jul-22 13:33N 40°46' W 074°01'1 0.6
2016-Jul-22 12:33N 40°46' W 074°01'0 0.4
2016-Jul-22 11:33N 40°46' W 074°01'1 0.8
2016-Jul-22 10:33N 40°46' W 074°01'0 0.0
2016-Jul-22 00:05N 40°46' W 074°01'1 2.3
2016-Jul-21 23:33N 40°45' W 074°01'0 0.1
2016-Jul-21 22:33N 40°45' W 074°01'0 0.1
2016-Jul-21 21:34N 40°45' W 074°01'0 0.5
2016-Jul-21 20:33N 40°45' W 074°01'0 0.2
2016-Jul-21 19:33N 40°45' W 074°01'1 0.6
2016-Jul-21 18:33N 40°46' W 074°00'0 0.0
2016-Jul-21 17:34N 40°46' W 074°00'0 0.0
2016-Jul-21 16:34N 40°46' W 074°00'0 0.0
2016-Jul-21 15:33N 40°46' W 074°00'1 0.7
2016-Jul-21 14:33N 40°46' W 074°01'1 0.7
2016-Jul-21 13:34N 40°46' W 074°01'0 0.0
2016-Jul-21 12:33N 40°46' W 074°01'0 0.1
2016-Jul-21 11:33N 40°45' W 074°01'1 0.8
2016-Jul-21 10:33N 40°46' W 074°01'0 0.0
2016-Jul-21 00:05N 40°46' W 074°01'1 1.3
2016-Jul-20 23:33N 40°46' W 074°01'1 0.6
2016-Jul-20 22:34N 40°45' W 074°01'0 0.1
2016-Jul-20 21:33N 40°45' W 074°01'1 0.6
2016-Jul-20 20:33N 40°45' W 074°01'0 0.2
2016-Jul-20 19:33N 40°45' W 074°01'1 0.6
2016-Jul-20 18:33N 40°46' W 074°00'0 0.1
2016-Jul-20 17:33N 40°46' W 074°00'0 0.0
2016-Jul-20 16:33N 40°46' W 074°00'0 0.0
2016-Jul-20 15:34N 40°46' W 074°00'1 0.7
2016-Jul-20 14:33N 40°46' W 074°01'1 0.6
2016-Jul-20 13:34N 40°46' W 074°00'0 0.1
2016-Jul-20 12:33N 40°46' W 074°00'0 0.3
2016-Jul-20 11:33N 40°45' W 074°01'0 0.4
2016-Jul-20 10:33N 40°46' W 074°00'1 1.0
2016-Jul-20 09:34N 40°47' W 074°01'0 0.0
2016-Jul-20 00:05N 40°47' W 074°01'1 2.0
2016-Jul-19 23:33N 40°46' W 074°01'0 0.3
2016-Jul-19 22:34N 40°45' W 074°01'0 0.3
2016-Jul-19 21:34N 40°45' W 074°01'1 0.6
2016-Jul-19 20:34N 40°45' W 074°01'0 0.3
2016-Jul-19 19:34N 40°46' W 074°00'1 0.7
2016-Jul-19 18:33N 40°46' W 074°01'1 0.8
2016-Jul-19 17:33N 40°46' W 074°00'0 0.0
2016-Jul-19 16:33N 40°46' W 074°00'0 0.0
2016-Jul-19 15:33N 40°46' W 074°00'3 2.8
2016-Jul-19 14:33N 40°43' W 074°01'0 0.4
2016-Jul-19 13:33N 40°43' W 074°02'0 0.2
2016-Jul-19 12:33N 40°43' W 074°01'0 0.1
2016-Jul-19 11:34N 40°43' W 074°02'0 0.2
2016-Jul-19 10:33N 40°43' W 074°01'2 0.2
2016-Jul-18 23:33N 40°45' W 074°01'3 2.7
2016-Jul-18 22:33N 40°42' W 074°01'0 0.4
2016-Jul-18 21:33N 40°42' W 074°01'2 2.2
2016-Jul-18 20:33N 40°44' W 074°02'0 0.0
2016-Jul-18 19:34N 40°44' W 074°02'0 0.0
2016-Jul-18 18:34N 40°44' W 074°02'2 2.0
2016-Jul-18 17:34N 40°46' W 074°01'1 0.5
2016-Jul-18 16:33N 40°45' W 074°01'0 0.1
2016-Jul-18 15:34N 40°45' W 074°01'0 0.5
2016-Jul-18 14:33N 40°46' W 074°00'0 0.0
2016-Jul-18 13:34N 40°46' W 074°00'0 0.4
2016-Jul-18 12:33N 40°45' W 074°01'0 0.2
2016-Jul-18 11:33N 40°46' W 074°01'1 0.7
2016-Jul-18 10:33N 40°46' W 074°01'1 0.1
2016-Jul-17 19:33N 40°45' W 074°01'0 0.3
2016-Jul-17 18:30N 40°45' W 074°01'1 0.5
2016-Jul-17 17:28N 40°46' W 074°00'0 0.1
2016-Jul-17 16:22N 40°46' W 074°01'0 0.1
2016-Jul-17 15:33N 40°46' W 074°01'0 0.2
2016-Jul-17 14:32N 40°46' W 074°00'1 0.1
2016-Jul-17 06:09N 40°46' W 074°01'5 2.9
2016-Jul-17 04:34N 40°42' W 074°01'0 0.0
2016-Jul-17 03:34N 40°42' W 074°01'0 0.5
2016-Jul-17 02:33N 40°42' W 074°01'0 0.5
2016-Jul-17 01:33N 40°42' W 074°01'0 0.0
2016-Jul-17 00:34N 40°42' W 074°01'0 0.0
2016-Jul-16 23:33N 40°42' W 074°01'0 0.4
2016-Jul-16 22:23N 40°42' W 074°01'0 0.0
2016-Jul-16 21:34N 40°42' W 074°01'0 0.4
2016-Jul-16 20:33N 40°42' W 074°01'1 0.7
2016-Jul-16 19:34N 40°42' W 074°01'4 4.2
2016-Jul-16 18:33N 40°46' W 074°01'1 0.8
2016-Jul-16 17:33N 40°46' W 074°00'0 0.0
2016-Jul-16 16:33N 40°46' W 074°00'0 0.1
2016-Jul-16 15:34N 40°46' W 074°00'1 0.7
2016-Jul-16 14:33N 40°46' W 074°01'0 0.0
2016-Jul-16 00:07N 40°46' W 074°01'1 1.3
2016-Jul-15 23:33N 40°46' W 074°01'0 0.3
2016-Jul-15 22:34N 40°45' W 074°01'0 0.3
2016-Jul-15 21:33N 40°45' W 074°01'0 0.3
2016-Jul-15 20:33N 40°45' W 074°01'0 0.3
2016-Jul-15 19:34N 40°46' W 074°00'1 0.6
2016-Jul-15 18:33N 40°45' W 074°01'1 0.6
2016-Jul-15 17:33N 40°46' W 074°00'0 0.0
2016-Jul-15 16:33N 40°46' W 074°00'0 0.0
2016-Jul-15 15:33N 40°46' W 074°00'1 0.8
2016-Jul-15 14:33N 40°46' W 074°01'1 0.9
2016-Jul-15 13:34N 40°45' W 074°01'0 0.1
2016-Jul-15 12:34N 40°45' W 074°01'0 0.3
2016-Jul-15 11:33N 40°46' W 074°01'1 1.1
2016-Jul-15 10:33N 40°47' W 074°01'0 0.0
2016-Jul-14 23:14N 40°47' W 074°01'0 0.1
2016-Jul-14 19:33N 40°46' W 074°01'1 0.8
2016-Jul-14 18:34N 40°46' W 074°00'0 0.0
2016-Jul-14 17:33N 40°46' W 074°00'0 0.0
2016-Jul-14 16:34N 40°46' W 074°00'0 0.0
2016-Jul-14 15:33N 40°46' W 074°00'1 0.8
2016-Jul-14 14:33N 40°46' W 074°01'1 0.8
2016-Jul-14 13:33N 40°45' W 074°01'0 0.4
2016-Jul-14 12:33N 40°46' W 074°00'0 0.4
2016-Jul-14 11:34N 40°45' W 074°01'1 1.1
2016-Jul-14 10:33N 40°47' W 074°01'0 0.0
2016-Jul-14 09:33N 40°47' W 074°01'0 0.0
2016-Jul-14 08:33N 40°47' W 074°01'  

Dump ship's entire track history